sensor_id;sensor_type;location;lat;lon;timestamp;pressure;altitude;pressure_sealevel;temperature;humidity
54978;BME280;40873;47.522;19.106;2023-01-30T00:01:49;100953.78;;;-3.20;99.41
54978;BME280;40873;47.522;19.106;2023-01-30T00:04:15;100957.16;;;-3.27;98.96
54978;BME280;40873;47.522;19.106;2023-01-30T00:06:43;100951.13;;;-3.31;99.45
54978;BME280;40873;47.522;19.106;2023-01-30T00:09:13;100953.69;;;-3.34;99.73
54978;BME280;40873;47.522;19.106;2023-01-30T00:11:43;100943.38;;;-3.31;99.31
54978;BME280;40873;47.522;19.106;2023-01-30T00:14:10;100944.25;;;-3.33;99.39
54978;BME280;40873;47.522;19.106;2023-01-30T00:16:37;100943.34;;;-3.37;99.99
54978;BME280;40873;47.522;19.106;2023-01-30T00:19:04;100940.75;;;-3.38;99.89
54978;BME280;40873;47.522;19.106;2023-01-30T00:21:31;100933.84;;;-3.42;100.00
54978;BME280;40873;47.522;19.106;2023-01-30T00:23:58;100937.31;;;-3.36;100.00
54978;BME280;40873;47.522;19.106;2023-01-30T00:26:26;100939.97;;;-3.23;100.00
54978;BME280;40873;47.522;19.106;2023-01-30T00:28:53;100940.84;;;-3.23;100.00
54978;BME280;40873;47.522;19.106;2023-01-30T00:31:20;100927.09;;;-3.25;100.00
54978;BME280;40873;47.522;19.106;2023-01-30T00:33:47;100929.66;;;-3.20;100.00
54978;BME280;40873;47.522;19.106;2023-01-30T00:36:14;100936.50;;;-3.32;100.00
54978;BME280;40873;47.522;19.106;2023-01-30T00:38:41;100935.66;;;-3.29;100.00
54978;BME280;40873;47.522;19.106;2023-01-30T00:41:08;100934.75;;;-3.34;100.00
54978;BME280;40873;47.522;19.106;2023-01-30T00:43:36;100937.41;;;-3.26;99.14
54978;BME280;40873;47.522;19.106;2023-01-30T00:46:31;100929.63;;;-3.29;99.12
54978;BME280;40873;47.522;19.106;2023-01-30T00:49:18;100927.91;;;-3.34;99.04
54978;BME280;40873;47.522;19.106;2023-01-30T00:51:45;100920.16;;;-3.29;99.14
54978;BME280;40873;47.522;19.106;2023-01-30T00:54:12;100922.81;;;-3.17;98.45
54978;BME280;40873;47.522;19.106;2023-01-30T00:56:40;100921.06;;;-3.21;99.01
54978;BME280;40873;47.522;19.106;2023-01-30T00:59:06;100916.75;;;-3.22;99.50
54978;BME280;40873;47.522;19.106;2023-01-30T01:01:34;100911.59;;;-3.26;99.65
54978;BME280;40873;47.522;19.106;2023-01-30T01:04:01;100921.19;;;-2.95;98.81
54978;BME280;40873;47.522;19.106;2023-01-30T01:06:28;100906.53;;;-3.00;98.64
54978;BME280;40873;47.522;19.106;2023-01-30T01:08:54;100903.84;;;-3.20;98.50
54978;BME280;40873;47.522;19.106;2023-01-30T01:11:22;100908.19;;;-3.18;99.31
54978;BME280;40873;47.522;19.106;2023-01-30T01:13:56;100908.16;;;-3.21;98.78
54978;BME280;40873;47.522;19.106;2023-01-30T01:16:25;100899.56;;;-3.23;98.81
54978;BME280;40873;47.522;19.106;2023-01-30T01:18:53;100901.22;;;-3.34;99.13
54978;BME280;40873;47.522;19.106;2023-01-30T01:21:20;100896.97;;;-3.26;98.41
54978;BME280;40873;47.522;19.106;2023-01-30T01:23:52;100890.13;;;-3.19;97.82
54978;BME280;40873;47.522;19.106;2023-01-30T01:26:20;100893.56;;;-3.16;97.25
54978;BME280;40873;47.522;19.106;2023-01-30T01:28:47;100887.50;;;-3.22;97.80
54978;BME280;40873;47.522;19.106;2023-01-30T01:31:15;100890.09;;;-3.22;97.50
54978;BME280;40873;47.522;19.106;2023-01-30T01:33:43;100882.38;;;-3.19;97.23
54978;BME280;40873;47.522;19.106;2023-01-30T01:36:10;100884.09;;;-3.15;97.66
54978;BME280;40873;47.522;19.106;2023-01-30T01:38:45;100883.28;;;-3.13;97.08
54978;BME280;40873;47.522;19.106;2023-01-30T01:41:14;100877.22;;;-3.16;97.37
54978;BME280;40873;47.522;19.106;2023-01-30T01:44:10;100871.19;;;-3.15;98.01
54978;BME280;40873;47.522;19.106;2023-01-30T01:49:12;100868.63;;;-3.15;99.36
54978;BME280;40873;47.522;19.106;2023-01-30T01:52:07;100860.03;;;-3.13;98.69
54978;BME280;40873;47.522;19.106;2023-01-30T01:57:08;100847.91;;;-3.32;98.50
54978;BME280;40873;47.522;19.106;2023-01-30T01:59:44;100847.91;;;-3.29;98.27
54978;BME280;40873;47.522;19.106;2023-01-30T02:02:14;100850.50;;;-3.32;98.46
54978;BME280;40873;47.522;19.106;2023-01-30T02:04:44;100840.22;;;-3.26;98.41
54978;BME280;40873;47.522;19.106;2023-01-30T02:07:37;100828.97;;;-3.34;97.78
54978;BME280;40873;47.522;19.106;2023-01-30T02:10:07;100822.09;;;-3.35;97.97
54978;BME280;40873;47.522;19.106;2023-01-30T02:12:37;100823.81;;;-3.40;98.95
54978;BME280;40873;47.522;19.106;2023-01-30T02:15:05;100823.78;;;-3.45;98.96
54978;BME280;40873;47.522;19.106;2023-01-30T02:17:33;100823.81;;;-3.37;98.57
54978;BME280;40873;47.522;19.106;2023-01-30T02:44:36;100779.94;;;-3.42;99.83
54978;BME280;40873;47.522;19.106;2023-01-30T02:49:42;100773.09;;;-3.34;100.00
54978;BME280;40873;47.522;19.106;2023-01-30T02:52:12;100773.97;;;-3.21;100.00
54978;BME280;40873;47.522;19.106;2023-01-30T02:54:39;100767.91;;;-3.35;100.00
54978;BME280;40873;47.522;19.106;2023-01-30T02:57:18;100767.91;;;-3.46;100.00
54978;BME280;40873;47.522;19.106;2023-01-30T02:59:51;100755.91;;;-3.33;100.00
54978;BME280;40873;47.522;19.106;2023-01-30T03:02:56;100757.56;;;-3.41;100.00
54978;BME280;40873;47.522;19.106;2023-01-30T03:11:06;100753.25;;;-3.54;100.00
54978;BME280;40873;47.522;19.106;2023-01-30T03:13:43;100758.41;;;-3.54;100.00
54978;BME280;40873;47.522;19.106;2023-01-30T03:16:19;100749.84;;;-3.35;100.00
54978;BME280;40873;47.522;19.106;2023-01-30T03:18:48;100743.88;;;-3.17;100.00
54978;BME280;40873;47.522;19.106;2023-01-30T03:21:15;100754.16;;;-3.37;100.00
54978;BME280;40873;47.522;19.106;2023-01-30T03:23:46;100749.84;;;-3.47;100.00
54978;BME280;40873;47.522;19.106;2023-01-30T03:26:18;100742.91;;;-3.58;100.00
54978;BME280;40873;47.522;19.106;2023-01-30T03:28:48;100748.03;;;-3.65;100.00
54978;BME280;40873;47.522;19.106;2023-01-30T03:31:15;100737.72;;;-3.67;100.00
54978;BME280;40873;47.522;19.106;2023-01-30T03:33:42;100746.31;;;-3.68;100.00
54978;BME280;40873;47.522;19.106;2023-01-30T03:36:10;100736.13;;;-3.33;100.00
54978;BME280;40873;47.522;19.106;2023-01-30T03:38:37;100724.88;;;-3.50;100.00
54978;BME280;40873;47.522;19.106;2023-01-30T03:41:04;100727.44;;;-3.61;100.00
54978;BME280;40873;47.522;19.106;2023-01-30T03:43:31;100735.19;;;-3.58;100.00
54978;BME280;40873;47.522;19.106;2023-01-30T03:45:58;100727.44;;;-3.58;100.00
54978;BME280;40873;47.522;19.106;2023-01-30T03:48:25;100724.88;;;-3.59;100.00
54978;BME280;40873;47.522;19.106;2023-01-30T03:50:53;100727.50;;;-3.35;100.00
54978;BME280;40873;47.522;19.106;2023-01-30T03:53:19;100732.63;;;-3.42;100.00
54978;BME280;40873;47.522;19.106;2023-01-30T03:55:46;100726.63;;;-3.46;100.00
54978;BME280;40873;47.522;19.106;2023-01-30T03:58:13;100720.66;;;-3.00;100.00
54978;BME280;40873;47.522;19.106;2023-01-30T04:00:40;100725.81;;;-3.08;100.00
54978;BME280;40873;47.522;19.106;2023-01-30T04:03:08;100718.09;;;-3.13;100.00
54978;BME280;40873;47.522;19.106;2023-01-30T04:05:35;100713.78;;;-3.24;100.00
54978;BME280;40873;47.522;19.106;2023-01-30T04:08:02;100722.31;;;-3.54;100.00
54978;BME280;40873;47.522;19.106;2023-01-30T04:10:29;100714.59;;;-3.44;100.00
54978;BME280;40873;47.522;19.106;2023-01-30T04:12:56;100705.97;;;-3.44;100.00
54978;BME280;40873;47.522;19.106;2023-01-30T04:15:23;100701.69;;;-3.45;100.00
54978;BME280;40873;47.522;19.106;2023-01-30T04:17:49;100696.53;;;-3.45;100.00
54978;BME280;40873;47.522;19.106;2023-01-30T04:20:16;100706.81;;;-3.51;100.00
54978;BME280;40873;47.522;19.106;2023-01-30T04:22:43;100700.81;;;-3.50;100.00
54978;BME280;40873;47.522;19.106;2023-01-30T04:25:10;100704.25;;;-3.51;100.00
54978;BME280;40873;47.522;19.106;2023-01-30T04:27:37;100704.31;;;-3.24;100.00
54978;BME280;40873;47.522;19.106;2023-01-30T04:30:05;100700.00;;;-3.31;100.00
54978;BME280;40873;47.522;19.106;2023-01-30T04:32:32;100687.97;;;-3.26;100.00
54978;BME280;40873;47.522;19.106;2023-01-30T04:34:59;100693.97;;;-3.27;100.00
54978;BME280;40873;47.522;19.106;2023-01-30T04:37:26;100687.06;;;-3.43;100.00
54978;BME280;40873;47.522;19.106;2023-01-30T04:39:53;100681.06;;;-3.39;100.00
54978;BME280;40873;47.522;19.106;2023-01-30T04:42:20;100675.84;;;-3.56;100.00
54978;BME280;40873;47.522;19.106;2023-01-30T04:44:47;100665.53;;;-3.62;100.00
54978;BME280;40873;47.522;19.106;2023-01-30T04:47:15;100668.97;;;-3.59;100.00
54978;BME280;40873;47.522;19.106;2023-01-30T04:49:42;100661.25;;;-3.59;100.00
54978;BME280;40873;47.522;19.106;2023-01-30T04:52:09;100663.81;;;-3.60;100.00
54978;BME280;40873;47.522;19.106;2023-01-30T04:54:37;100658.69;;;-3.51;100.00
54978;BME280;40873;47.522;19.106;2023-01-30T04:57:04;100669.00;;;-3.49;100.00
54978;BME280;40873;47.522;19.106;2023-01-30T04:59:31;100664.72;;;-3.53;100.00
54978;BME280;40873;47.522;19.106;2023-01-30T05:01:58;100650.97;;;-3.29;100.00
54978;BME280;40873;47.522;19.106;2023-01-30T05:04:25;100655.28;;;-3.25;100.00
54978;BME280;40873;47.522;19.106;2023-01-30T05:06:52;100659.56;;;-3.38;100.00
54978;BME280;40873;47.522;19.106;2023-01-30T05:09:19;100653.50;;;-3.49;100.00
54978;BME280;40873;47.522;19.106;2023-01-30T05:11:46;100652.69;;;-3.24;100.00
54978;BME280;40873;47.522;19.106;2023-01-30T05:14:13;100657.00;;;-3.38;100.00
54978;BME280;40873;47.522;19.106;2023-01-30T05:16:40;100656.94;;;-3.55;100.00
54978;BME280;40873;47.522;19.106;2023-01-30T05:19:08;100657.81;;;-3.50;100.00
54978;BME280;40873;47.522;19.106;2023-01-30T05:21:36;100656.97;;;-3.61;100.00
54978;BME280;40873;47.522;19.106;2023-01-30T05:24:03;100660.38;;;-3.64;100.00
54978;BME280;40873;47.522;19.106;2023-01-30T05:26:30;100658.63;;;-3.71;100.00
54978;BME280;40873;47.522;19.106;2023-01-30T05:28:58;100655.19;;;-3.70;100.00
54978;BME280;40873;47.522;19.106;2023-01-30T05:31:25;100661.25;;;-3.68;100.00
54978;BME280;40873;47.522;19.106;2023-01-30T05:33:52;100647.50;;;-3.53;100.00
54978;BME280;40873;47.522;19.106;2023-01-30T05:36:21;100644.06;;;-3.52;100.00
54978;BME280;40873;47.522;19.106;2023-01-30T05:38:48;100637.22;;;-3.22;100.00
54978;BME280;40873;47.522;19.106;2023-01-30T05:41:16;100638.94;;;-3.29;100.00
54978;BME280;40873;47.522;19.106;2023-01-30T05:43:43;100640.63;;;-3.49;100.00
54978;BME280;40873;47.522;19.106;2023-01-30T05:46:11;100633.75;;;-3.58;100.00
54978;BME280;40873;47.522;19.106;2023-01-30T05:48:39;100629.47;;;-3.54;100.00
54978;BME280;40873;47.522;19.106;2023-01-30T05:51:06;100637.22;;;-3.25;100.00
54978;BME280;40873;47.522;19.106;2023-01-30T05:53:33;100633.78;;;-3.40;100.00
54978;BME280;40873;47.522;19.106;2023-01-30T05:56:04;100638.88;;;-3.56;100.00
54978;BME280;40873;47.522;19.106;2023-01-30T05:58:32;100637.16;;;-3.62;100.00
54978;BME280;40873;47.522;19.106;2023-01-30T06:01:04;100639.72;;;-3.73;100.00
54978;BME280;40873;47.522;19.106;2023-01-30T06:03:32;100634.56;;;-3.74;100.00
54978;BME280;40873;47.522;19.106;2023-01-30T06:06:01;100641.47;;;-3.66;100.00
54978;BME280;40873;47.522;19.106;2023-01-30T06:08:28;100644.88;;;-3.71;100.00
54978;BME280;40873;47.522;19.106;2023-01-30T06:11:06;100639.72;;;-3.79;100.00
54978;BME280;40873;47.522;19.106;2023-01-30T06:13:34;100644.06;;;-3.60;100.00
54978;BME280;40873;47.522;19.106;2023-01-30T06:16:02;100639.75;;;-3.68;100.00
54978;BME280;40873;47.522;19.106;2023-01-30T06:18:29;100646.59;;;-3.79;100.00
54978;BME280;40873;47.522;19.106;2023-01-30T06:20:56;100643.97;;;-3.92;100.00
54978;BME280;40873;47.522;19.106;2023-01-30T06:23:23;100640.53;;;-3.84;100.00
54978;BME280;40873;47.522;19.106;2023-01-30T06:25:51;100642.28;;;-3.88;100.00
54978;BME280;40873;47.522;19.106;2023-01-30T06:28:19;100645.66;;;-3.97;100.00
54978;BME280;40873;47.522;19.106;2023-01-30T06:30:46;100650.81;;;-3.97;100.00
54978;BME280;40873;47.522;19.106;2023-01-30T06:33:13;100653.41;;;-3.92;100.00
54978;BME280;40873;47.522;19.106;2023-01-30T06:35:41;100643.97;;;-3.86;100.00
54978;BME280;40873;47.522;19.106;2023-01-30T06:38:09;100641.41;;;-3.76;100.00
54978;BME280;40873;47.522;19.106;2023-01-30T06:40:40;100630.28;;;-3.72;100.00
54978;BME280;40873;47.522;19.106;2023-01-30T06:43:07;100626.84;;;-3.64;100.00
54978;BME280;40873;47.522;19.106;2023-01-30T06:45:34;100622.59;;;-3.46;100.00
54978;BME280;40873;47.522;19.106;2023-01-30T06:48:01;100617.44;;;-3.39;100.00
54978;BME280;40873;47.522;19.106;2023-01-30T06:50:29;100618.28;;;-3.37;100.00
54978;BME280;40873;47.522;19.106;2023-01-30T06:52:57;100620.00;;;-3.00;100.00
54978;BME280;40873;47.522;19.106;2023-01-30T06:55:25;100622.56;;;-2.76;100.00
54978;BME280;40873;47.522;19.106;2023-01-30T07:00:32;100622.56;;;-2.82;100.00
54978;BME280;40873;47.522;19.106;2023-01-30T07:03:02;100614.81;;;-2.81;100.00
54978;BME280;40873;47.522;19.106;2023-01-30T07:05:29;100613.13;;;-2.85;100.00
54978;BME280;40873;47.522;19.106;2023-01-30T07:07:56;100615.66;;;-2.74;100.00
54978;BME280;40873;47.522;19.106;2023-01-30T07:10:23;100613.06;;;-2.66;100.00
54978;BME280;40873;47.522;19.106;2023-01-30T07:12:52;100612.19;;;-2.50;100.00
54978;BME280;40873;47.522;19.106;2023-01-30T07:15:19;100612.97;;;-2.34;100.00
54978;BME280;40873;47.522;19.106;2023-01-30T07:17:46;100612.94;;;-2.22;100.00
54978;BME280;40873;47.522;19.106;2023-01-30T07:20:14;100604.31;;;-2.19;100.00
54978;BME280;40873;47.522;19.106;2023-01-30T07:22:41;100612.09;;;-2.29;100.00
54978;BME280;40873;47.522;19.106;2023-01-30T07:25:08;100614.72;;;-2.45;100.00
54978;BME280;40873;47.522;19.106;2023-01-30T07:27:35;100608.66;;;-2.34;100.00
54978;BME280;40873;47.522;19.106;2023-01-30T07:30:02;100606.91;;;-2.26;100.00
54978;BME280;40873;47.522;19.106;2023-01-30T07:32:30;100598.34;;;-2.35;100.00
54978;BME280;40873;47.522;19.106;2023-01-30T07:34:56;100610.41;;;-2.39;100.00
54978;BME280;40873;47.522;19.106;2023-01-30T07:37:23;100612.19;;;-2.59;100.00
54978;BME280;40873;47.522;19.106;2023-01-30T07:39:50;100613.88;;;-2.47;100.00
54978;BME280;40873;47.522;19.106;2023-01-30T07:42:17;100604.38;;;-2.35;100.00
54978;BME280;40873;47.522;19.106;2023-01-30T07:44:44;100600.91;;;-2.37;100.00
54978;BME280;40873;47.522;19.106;2023-01-30T07:47:14;100599.16;;;-2.30;100.00
54978;BME280;40873;47.522;19.106;2023-01-30T07:49:41;100594.88;;;-2.33;100.00
54978;BME280;40873;47.522;19.106;2023-01-30T07:52:08;100592.25;;;-2.25;100.00
54978;BME280;40873;47.522;19.106;2023-01-30T07:54:35;100581.00;;;-2.16;100.00
54978;BME280;40873;47.522;19.106;2023-01-30T07:57:02;100586.97;;;-2.02;100.00
54978;BME280;40873;47.522;19.106;2023-01-30T07:59:29;100589.41;;;-1.75;100.00
54978;BME280;40873;47.522;19.106;2023-01-30T08:01:56;100583.38;;;-1.77;100.00
54978;BME280;40873;47.522;19.106;2023-01-30T08:04:24;100589.31;;;-1.62;100.00
54978;BME280;40873;47.522;19.106;2023-01-30T08:06:51;100582.34;;;-1.50;100.00
54978;BME280;40873;47.522;19.106;2023-01-30T08:09:18;100579.78;;;-1.56;100.00
54978;BME280;40873;47.522;19.106;2023-01-30T08:11:45;100579.75;;;-1.50;100.00
54978;BME280;40873;47.522;19.106;2023-01-30T08:14:12;100556.50;;;-1.56;100.00
54978;BME280;40873;47.522;19.106;2023-01-30T08:16:39;100557.31;;;-1.49;100.00
54978;BME280;40873;47.522;19.106;2023-01-30T08:19:06;100531.34;;;-1.40;100.00
54978;BME280;40873;47.522;19.106;2023-01-30T08:21:33;100520.22;;;-1.45;100.00
54978;BME280;40873;47.522;19.106;2023-01-30T08:24:00;100511.53;;;-1.41;100.00
54978;BME280;40873;47.522;19.106;2023-01-30T08:26:30;100511.50;;;-1.40;100.00
54978;BME280;40873;47.522;19.106;2023-01-30T08:28:57;100500.34;;;-1.46;100.00
54978;BME280;40873;47.522;19.106;2023-01-30T08:31:24;100509.16;;;-1.64;100.00
54978;BME280;40873;47.522;19.106;2023-01-30T08:33:51;100515.16;;;-1.62;100.00
54978;BME280;40873;47.522;19.106;2023-01-30T08:36:18;100517.56;;;-1.39;100.00
54978;BME280;40873;47.522;19.106;2023-01-30T08:38:45;100510.78;;;-1.55;100.00
54978;BME280;40873;47.522;19.106;2023-01-30T08:41:12;100517.75;;;-1.62;100.00
54978;BME280;40873;47.522;19.106;2023-01-30T08:43:39;100510.75;;;-1.49;100.00
54978;BME280;40873;47.522;19.106;2023-01-30T08:46:06;100511.25;;;-1.12;100.00
54978;BME280;40873;47.522;19.106;2023-01-30T08:48:33;100515.53;;;-1.08;100.00
54978;BME280;40873;47.522;19.106;2023-01-30T08:51:15;100511.97;;;-0.98;100.00
54978;BME280;40873;47.522;19.106;2023-01-30T08:53:41;100508.59;;;-1.06;100.00
54978;BME280;40873;47.522;19.106;2023-01-30T08:56:09;100507.81;;;-1.11;100.00
54978;BME280;40873;47.522;19.106;2023-01-30T08:58:35;100506.06;;;-1.09;100.00
54978;BME280;40873;47.522;19.106;2023-01-30T09:01:06;100513.59;;;-0.88;100.00
54978;BME280;40873;47.522;19.106;2023-01-30T09:03:33;100505.69;;;-0.75;100.00
54978;BME280;40873;47.522;19.106;2023-01-30T09:06:00;100505.53;;;-0.65;100.00
54978;BME280;40873;47.522;19.106;2023-01-30T09:08:27;100500.06;;;-0.40;100.00
54978;BME280;40873;47.522;19.106;2023-01-30T09:11:12;100503.66;;;-0.52;100.00
54978;BME280;40873;47.522;19.106;2023-01-30T09:13:39;100501.22;;;-0.64;100.00
54978;BME280;40873;47.522;19.106;2023-01-30T09:16:11;100499.41;;;-0.58;100.00
54978;BME280;40873;47.522;19.106;2023-01-30T09:18:42;100496.97;;;-0.70;100.00
54978;BME280;40873;47.522;19.106;2023-01-30T09:21:10;100502.22;;;-0.74;100.00
54978;BME280;40873;47.522;19.106;2023-01-30T09:23:38;100492.88;;;-0.91;100.00
54978;BME280;40873;47.522;19.106;2023-01-30T09:26:05;100483.38;;;-0.89;100.00
54978;BME280;40873;47.522;19.106;2023-01-30T09:28:33;100485.03;;;-0.81;100.00
54978;BME280;40873;47.522;19.106;2023-01-30T09:31:01;100478.94;;;-0.79;100.00
54978;BME280;40873;47.522;19.106;2023-01-30T09:33:28;100467.72;;;-0.76;100.00
54978;BME280;40873;47.522;19.106;2023-01-30T09:35:55;100472.03;;;-0.78;100.00
54978;BME280;40873;47.522;19.106;2023-01-30T09:38:22;100465.94;;;-0.74;100.00
54978;BME280;40873;47.522;19.106;2023-01-30T09:41:12;100448.63;;;-0.69;100.00
54978;BME280;40873;47.522;19.106;2023-01-30T09:46:21;100443.91;;;-0.40;100.00
54978;BME280;40873;47.522;19.106;2023-01-30T09:51:44;100435.25;;;-0.39;100.00
54978;BME280;40873;47.522;19.106;2023-01-30T09:54:22;100423.66;;;-0.16;100.00
54978;BME280;40873;47.522;19.106;2023-01-30T09:56:56;100427.81;;;-0.05;100.00
54978;BME280;40873;47.522;19.106;2023-01-30T09:59:31;100425.59;;;-0.28;100.00
54978;BME280;40873;47.522;19.106;2023-01-30T10:02:18;100417.88;;;-0.35;100.00
54978;BME280;40873;47.522;19.106;2023-01-30T10:04:49;100418.47;;;-0.16;100.00
54978;BME280;40873;47.522;19.106;2023-01-30T10:07:55;100408.16;;;-0.19;100.00
54978;BME280;40873;47.522;19.106;2023-01-30T10:26:30;100388.75;;;0.52;96.67
54978;BME280;40873;47.522;19.106;2023-01-30T10:29:23;100365.13;;;0.20;98.99
54978;BME280;40873;47.522;19.106;2023-01-30T10:31:58;100355.50;;;0.26;98.74
54978;BME280;40873;47.522;19.106;2023-01-30T10:34:31;100353.38;;;0.47;97.61
54978;BME280;40873;47.522;19.106;2023-01-30T10:40:06;100340.41;;;0.92;96.27
54978;BME280;40873;47.522;19.106;2023-01-30T10:42:56;100333.09;;;0.67;96.65
54978;BME280;40873;47.522;19.106;2023-01-30T10:45:34;100330.28;;;0.76;96.23
54978;BME280;40873;47.522;19.106;2023-01-30T10:51:27;100307.94;;;0.69;96.16
54978;BME280;40873;47.522;19.106;2023-01-30T10:54:08;100295.97;;;0.62;97.19
54978;BME280;40873;47.522;19.106;2023-01-30T11:05:20;100272.69;;;0.59;98.35
54978;BME280;40873;47.522;19.106;2023-01-30T11:07:48;100264.97;;;0.56;98.67
54978;BME280;40873;47.522;19.106;2023-01-30T11:10:24;100262.75;;;0.38;99.71
54978;BME280;40873;47.522;19.106;2023-01-30T11:13:19;100252.06;;;0.51;99.04
54978;BME280;40873;47.522;19.106;2023-01-30T11:15:47;100252.50;;;0.72;97.93
54978;BME280;40873;47.522;19.106;2023-01-30T11:18:16;100254.50;;;0.59;98.58
54978;BME280;40873;47.522;19.106;2023-01-30T11:21:07;100252.16;;;0.47;100.00
54978;BME280;40873;47.522;19.106;2023-01-30T11:23:41;100247.91;;;0.44;100.00
54978;BME280;40873;47.522;19.106;2023-01-30T11:26:32;100243.03;;;0.29;100.00
54978;BME280;40873;47.522;19.106;2023-01-30T11:29:24;100233.44;;;0.33;100.00
54978;BME280;40873;47.522;19.106;2023-01-30T11:31:52;100224.72;;;0.37;100.00
54978;BME280;40873;47.522;19.106;2023-01-30T11:34:22;100213.44;;;0.38;100.00
54978;BME280;40873;47.522;19.106;2023-01-30T11:36:49;100216.38;;;0.61;100.00
54978;BME280;40873;47.522;19.106;2023-01-30T11:39:21;100215.34;;;0.68;100.00
54978;BME280;40873;47.522;19.106;2023-01-30T11:41:58;100207.13;;;0.49;100.00
54978;BME280;40873;47.522;19.106;2023-01-30T11:44:33;100198.88;;;0.71;100.00
54978;BME280;40873;47.522;19.106;2023-01-30T11:47:05;100187.50;;;0.75;100.00
54978;BME280;40873;47.522;19.106;2023-01-30T11:49:40;100180.91;;;0.99;99.44
54978;BME280;40873;47.522;19.106;2023-01-30T11:52:30;100186.38;;;0.87;99.09
54978;BME280;40873;47.522;19.106;2023-01-30T11:55:05;100179.78;;;1.09;99.29
54978;BME280;40873;47.522;19.106;2023-01-30T12:00:29;100179.28;;;1.29;99.36
54978;BME280;40873;47.522;19.106;2023-01-30T12:03:04;100183.22;;;1.09;100.00
54978;BME280;40873;47.522;19.106;2023-01-30T12:05:37;100173.06;;;1.00;100.00
54978;BME280;40873;47.522;19.106;2023-01-30T12:10:54;100175.91;;;0.90;99.07
54978;BME280;40873;47.522;19.106;2023-01-30T12:13:40;100159.41;;;0.92;99.43
54978;BME280;40873;47.522;19.106;2023-01-30T12:16:40;100157.91;;;0.82;100.00
54978;BME280;40873;47.522;19.106;2023-01-30T12:19:28;100163.00;;;0.87;99.51
54978;BME280;40873;47.522;19.106;2023-01-30T12:25:03;100149.94;;;0.91;99.89
54978;BME280;40873;47.522;19.106;2023-01-30T12:30:49;100113.63;;;1.22;99.67
54978;BME280;40873;47.522;19.106;2023-01-30T12:33:18;100101.69;;;1.15;100.00
54978;BME280;40873;47.522;19.106;2023-01-30T12:58:02;100097.97;;;1.25;100.00
54978;BME280;40873;47.522;19.106;2023-01-30T13:12:03;100072.50;;;1.05;100.00
54978;BME280;40873;47.522;19.106;2023-01-30T13:14:35;100075.47;;;0.92;100.00
54978;BME280;40873;47.522;19.106;2023-01-30T13:19:40;100043.69;;;1.15;100.00
54978;BME280;40873;47.522;19.106;2023-01-30T13:27:33;100031.25;;;1.26;100.00
54978;BME280;40873;47.522;19.106;2023-01-30T13:30:03;100029.56;;;1.23;100.00
54978;BME280;40873;47.522;19.106;2023-01-30T13:32:38;100034.34;;;1.07;100.00
54978;BME280;40873;47.522;19.106;2023-01-30T13:35:19;100033.34;;;1.13;100.00
54978;BME280;40873;47.522;19.106;2023-01-30T13:37:49;100032.53;;;1.09;100.00
54978;BME280;40873;47.522;19.106;2023-01-30T13:40:20;100040.28;;;1.11;100.00
54978;BME280;40873;47.522;19.106;2023-01-30T13:45:23;100034.72;;;1.25;100.00
54978;BME280;40873;47.522;19.106;2023-01-30T13:50:54;100040.97;;;1.18;100.00
54978;BME280;40873;47.522;19.106;2023-01-30T13:56:43;100033.16;;;1.50;98.40
54978;BME280;40873;47.522;19.106;2023-01-30T14:02:21;100033.25;;;1.47;98.66
54978;BME280;40873;47.522;19.106;2023-01-30T14:04:53;100026.59;;;1.37;98.71
54978;BME280;40873;47.522;19.106;2023-01-30T14:07:24;100019.94;;;1.58;97.76
54978;BME280;40873;47.522;19.106;2023-01-30T14:20:26;100019.69;;;1.67;96.12
54978;BME280;40873;47.522;19.106;2023-01-30T14:23:01;100018.63;;;1.73;94.69
54978;BME280;40873;47.522;19.106;2023-01-30T14:25:42;100030.28;;;1.59;95.66
54978;BME280;40873;47.522;19.106;2023-01-30T14:38:32;100038.97;;;1.29;98.93
54978;BME280;40873;47.522;19.106;2023-01-30T14:48:50;100046.00;;;1.24;100.00
54978;BME280;40873;47.522;19.106;2023-01-30T14:54:20;100032.13;;;1.25;100.00
54978;BME280;40873;47.522;19.106;2023-01-30T14:56:54;100030.69;;;1.15;100.00
54978;BME280;40873;47.522;19.106;2023-01-30T15:04:48;100029.41;;;1.29;100.00
54978;BME280;40873;47.522;19.106;2023-01-30T15:07:22;100033.50;;;1.38;100.00
54978;BME280;40873;47.522;19.106;2023-01-30T15:12:46;100030.59;;;1.49;100.00
54978;BME280;40873;47.522;19.106;2023-01-30T15:27:06;100031.44;;;1.18;100.00
54978;BME280;40873;47.522;19.106;2023-01-30T15:32:25;100027.56;;;1.02;100.00
54978;BME280;40873;47.522;19.106;2023-01-30T15:37:32;100028.09;;;1.15;100.00
54978;BME280;40873;47.522;19.106;2023-01-30T15:45:26;100047.81;;;1.53;100.00
54978;BME280;40873;47.522;19.106;2023-01-30T15:50:52;100040.59;;;1.33;100.00
54978;BME280;40873;47.522;19.106;2023-01-30T15:53:29;100043.63;;;1.16;100.00
54978;BME280;40873;47.522;19.106;2023-01-30T15:55:59;100039.97;;;1.23;100.00
54978;BME280;40873;47.522;19.106;2023-01-30T15:58:27;100046.59;;;1.02;100.00
54978;BME280;40873;47.522;19.106;2023-01-30T16:00:57;100048.66;;;1.22;100.00
54978;BME280;40873;47.522;19.106;2023-01-30T16:03:28;100049.81;;;1.12;100.00
54978;BME280;40873;47.522;19.106;2023-01-30T16:05:57;100066.75;;;1.27;100.00
54978;BME280;40873;47.522;19.106;2023-01-30T16:08:26;100063.50;;;1.19;100.00
54978;BME280;40873;47.522;19.106;2023-01-30T16:10:53;100063.66;;;1.13;100.00
54978;BME280;40873;47.522;19.106;2023-01-30T16:13:22;100052.13;;;1.23;100.00
54978;BME280;40873;47.522;19.106;2023-01-30T16:21:14;100054.97;;;0.79;100.00
54978;BME280;40873;47.522;19.106;2023-01-30T16:26:22;100062.66;;;0.84;100.00
54978;BME280;40873;47.522;19.106;2023-01-30T16:28:50;100067.13;;;0.79;100.00